AEX weather

Alexandria International Airport
Alexandria, Louisiana, United States

Public forecast

Using degrees Fahrenheit for public forecast. Weather courtesy of forecast.io.

Current aviation weather report (METAR) for Alexandria International Airport

Retrieved 2020/02/25 21:53 UTC (53 minutes ago):

KAEX 252153Z 30007KT 10SM CLR 20/09 A2983 RMK AO2 SLP105 T02000094

Aviation forecast (TAF) for Alexandria International Airport

Retrieved 2020/02/25 18:45 UTC (4 hours ago):

TAF KAEX 251742Z 2518/2618 VRB05KT P6SM SCT250 FM260300 32004KT P6SM OVC050 FM260600 31008KT P6SM OVC100 TEMPO 2606/2610 P6SM -RA OVC050